Terminal Aerodrome Forecast
Issued by NWS

Home | Current Version | Previous Version | Text Only | Print | Product List | Glossary On
Versions: 1 2 3 4 5 6 7 8 9 10 11 12 13 14 15 16 17 18 19 20 21 22 23 24 25 26 27 28 29 30 31 32 33 34 35 36 37 38 39 40 41 42 43
000
FTUS43 KDMX 282335
TAFMCW
TAF
KMCW 282335Z 2900/2924 12008KT 5SM BR OVC012
     FM290400 34010G17KT 3SM BR OVC006
     FM290700 33017G26KT 5SM BR OVC007
     FM291100 34026G37KT 4SM BR OVC008
     FM291800 33023G33KT P6SM OVC012=

USA.gov is the U.S. government's official web portal to all federal, state and local government web resources and services.